createdAt,value
2018-10-09T00:02:11.257Z,3.07
2018-10-09T00:04:38.719Z,2.47
2018-10-09T00:07:06.503Z,2.57
2018-10-09T00:09:33.950Z,2.70
2018-10-09T00:12:01.377Z,2.70
2018-10-09T00:14:29.128Z,3.07
2018-10-09T00:16:56.574Z,2.43
2018-10-09T00:19:24.059Z,2.73
2018-10-09T00:21:51.797Z,3.10
2018-10-09T00:24:19.265Z,2.83
2018-10-09T00:26:46.799Z,2.80
2018-10-09T00:29:14.377Z,2.80
2018-10-09T00:31:41.863Z,3.13
2018-10-09T00:34:09.319Z,2.40
2018-10-09T00:36:37.126Z,3.20
2018-10-09T00:39:06.952Z,2.57
2018-10-09T00:41:34.413Z,2.87
2018-10-09T00:44:02.323Z,2.03
2018-10-09T00:46:29.824Z,2.70
2018-10-09T00:48:57.354Z,2.70
2018-10-09T00:51:25.074Z,2.37
2018-10-09T00:53:52.594Z,2.83
2018-10-09T00:56:20.130Z,2.30
2018-10-09T00:58:47.870Z,2.20
2018-10-09T01:01:15.316Z,2.27
2018-10-09T01:03:42.831Z,2.50
2018-10-09T01:06:10.508Z,2.60
2018-10-09T01:08:37.969Z,2.70
2018-10-09T01:11:05.587Z,2.67
2018-10-09T01:13:33.313Z,2.80
2018-10-09T01:16:00.761Z,2.07
2018-10-09T01:18:28.284Z,2.70
2018-10-09T01:20:55.867Z,2.10
2018-10-09T01:23:23.607Z,2.73
2018-10-09T01:25:51.087Z,2.43
2018-10-09T01:28:18.852Z,2.43
2018-10-09T01:30:46.375Z,2.73
2018-10-09T01:33:13.850Z,2.47
2018-10-09T01:35:41.405Z,2.90
2018-10-09T01:38:08.920Z,2.50
2018-10-09T01:40:36.338Z,2.40
2018-10-09T01:43:04.104Z,2.43
2018-10-09T01:45:31.585Z,2.70
2018-10-09T01:47:59.019Z,2.37
2018-10-09T01:50:26.730Z,2.03
2018-10-09T01:52:54.163Z,2.60
2018-10-09T01:55:21.644Z,2.60
2018-10-09T01:57:49.324Z,1.90
2018-10-09T02:00:17.362Z,2.70
2018-10-09T02:02:44.785Z,2.83
2018-10-09T02:05:12.414Z,2.30
2018-10-09T02:07:39.921Z,1.63
2018-10-09T02:10:07.357Z,1.97
2018-10-09T02:12:35.064Z,2.30
2018-10-09T02:15:02.576Z,2.50
2018-10-09T02:17:30.103Z,2.17
2018-10-09T02:19:57.683Z,2.23
2018-10-09T02:22:25.141Z,2.27
2018-10-09T02:24:52.647Z,2.23
2018-10-09T02:27:20.224Z,2.00
2018-10-09T02:29:47.831Z,1.90
2018-10-09T02:32:15.290Z,2.00
2018-10-09T02:34:42.874Z,2.30
2018-10-09T02:37:10.403Z,2.10
2018-10-09T02:39:37.831Z,1.90
2018-10-09T02:42:05.620Z,2.10
2018-10-09T02:44:33.115Z,2.00
2018-10-09T02:47:00.788Z,1.70
2018-10-09T02:49:28.429Z,2.00
2018-10-09T02:51:55.900Z,2.23
2018-10-09T02:54:23.328Z,2.50
2018-10-09T02:56:51.057Z,2.10
2018-10-09T02:59:18.513Z,2.60
2018-10-09T03:01:45.977Z,2.20
2018-10-09T03:04:13.683Z,1.93
2018-10-09T03:06:41.200Z,1.93
2018-10-09T03:09:09.037Z,2.07
2018-10-09T03:11:36.660Z,1.53
2018-10-09T03:14:04.414Z,1.93
2018-10-09T03:16:31.912Z,1.70
2018-10-09T03:18:59.644Z,2.00
2018-10-09T03:21:27.143Z,1.80
2018-10-09T03:23:54.734Z,2.00
2018-10-09T03:26:22.286Z,1.40
2018-10-09T03:28:49.781Z,1.50
2018-10-09T03:31:17.274Z,1.20
2018-10-09T03:33:44.964Z,1.60
2018-10-09T03:36:12.620Z,1.90
2018-10-09T03:38:40.042Z,1.50
2018-10-09T03:41:07.788Z,1.57
2018-10-09T03:43:35.389Z,1.57
2018-10-09T03:46:02.858Z,1.57
2018-10-09T03:48:30.735Z,1.80
2018-10-09T03:50:58.165Z,1.90
2018-10-09T03:53:25.681Z,1.77
2018-10-09T03:55:53.441Z,1.70
2018-10-09T03:58:20.933Z,1.87
2018-10-09T04:00:48.404Z,1.30
2018-10-09T04:03:16.146Z,1.50
2018-10-09T04:05:43.626Z,1.40
2018-10-09T04:08:11.113Z,1.33
2018-10-09T04:10:38.728Z,1.70
2018-10-09T04:13:06.210Z,1.43
2018-10-09T04:15:33.762Z,2.00
2018-10-09T04:18:01.455Z,1.47
2018-10-09T04:20:28.905Z,1.67
2018-10-09T04:22:56.333Z,1.80
2018-10-09T04:25:24.014Z,1.57
2018-10-09T04:27:51.498Z,1.67
2018-10-09T04:30:18.966Z,2.00
2018-10-09T04:32:46.528Z,1.23
2018-10-09T04:35:13.948Z,1.80
2018-10-09T04:37:41.468Z,1.40
2018-10-09T04:40:09.106Z,1.67
2018-10-09T04:42:36.702Z,1.87
2018-10-09T04:45:04.322Z,1.87
2018-10-09T04:47:32.135Z,2.00
2018-10-09T04:49:59.812Z,1.80
2018-10-09T04:52:27.250Z,1.83
2018-10-09T04:54:54.849Z,2.00
2018-10-09T04:57:22.301Z,2.27
2018-10-09T04:59:49.792Z,1.90
2018-10-09T05:02:17.761Z,2.20
2018-10-09T05:04:45.292Z,2.17
2018-10-09T05:07:12.750Z,2.20
2018-10-09T05:09:40.385Z,2.27
2018-10-09T05:12:07.819Z,1.90
2018-10-09T05:14:35.235Z,2.70
2018-10-09T05:17:03.003Z,1.70
2018-10-09T05:19:30.492Z,2.00
2018-10-09T05:21:57.992Z,2.60
2018-10-09T05:24:25.572Z,2.70
2018-10-09T05:26:53.145Z,2.23
2018-10-09T05:29:20.615Z,2.70
2018-10-09T05:31:48.309Z,2.30
2018-10-09T05:34:15.797Z,2.00
2018-10-09T05:36:43.245Z,2.50
2018-10-09T05:39:10.929Z,2.87
2018-10-09T05:41:38.476Z,2.63
2018-10-09T05:44:06.245Z,3.07
2018-10-09T05:46:34.241Z,2.20
2018-10-09T05:49:01.773Z,2.33
2018-10-09T05:51:29.426Z,1.80
2018-10-09T05:53:57.092Z,2.60
2018-10-09T05:56:24.566Z,2.37
2018-10-09T05:58:52.186Z,2.13
2018-10-09T06:01:22.675Z,2.93
2018-10-09T06:03:50.272Z,2.30
2018-10-09T06:06:17.818Z,2.23
2018-10-09T06:08:45.635Z,2.60
2018-10-09T06:11:13.142Z,1.80
2018-10-09T06:13:40.643Z,2.70
2018-10-09T06:16:08.356Z,2.73
2018-10-09T06:18:35.816Z,3.13
2018-10-09T06:21:03.344Z,2.60
2018-10-09T06:23:30.990Z,2.70
2018-10-09T06:25:58.507Z,2.53
2018-10-09T06:28:26.124Z,2.30
2018-10-09T06:30:53.834Z,2.17
2018-10-09T06:33:21.317Z,2.77
2018-10-09T06:35:48.788Z,2.03
2018-10-09T06:38:16.688Z,2.17
2018-10-09T06:40:44.221Z,2.00
2018-10-09T06:43:11.693Z,2.30
2018-10-09T06:45:39.428Z,2.90
2018-10-09T06:48:06.893Z,2.50
2018-10-09T06:50:34.436Z,3.30
2018-10-09T06:53:02.434Z,2.90
2018-10-09T06:55:29.949Z,3.10
2018-10-09T06:57:57.421Z,2.87
2018-10-09T07:00:25.228Z,3.13
2018-10-09T07:02:52.779Z,2.67
2018-10-09T07:05:20.520Z,2.93
2018-10-09T07:07:48.326Z,2.70
2018-10-09T07:10:15.837Z,2.17
2018-10-09T07:12:43.383Z,2.80
2018-10-09T07:15:11.154Z,2.23
2018-10-09T07:17:38.630Z,2.77
2018-10-09T07:20:06.169Z,2.70
2018-10-09T07:22:33.918Z,2.83
2018-10-09T07:25:01.424Z,2.90
2018-10-09T07:27:28.842Z,3.00
2018-10-09T07:29:56.528Z,2.73
2018-10-09T07:32:24.002Z,2.80
2018-10-09T07:34:51.483Z,2.90
2018-10-09T07:37:19.252Z,3.10
2018-10-09T07:39:46.761Z,2.93
2018-10-09T07:42:14.237Z,2.70
2018-10-09T07:44:41.883Z,3.27
2018-10-09T07:47:09.405Z,2.70
2018-10-09T07:49:36.906Z,2.83
2018-10-09T07:52:04.572Z,3.47
2018-10-09T07:54:32.201Z,3.10
2018-10-09T07:56:59.649Z,3.43
2018-10-09T07:59:27.454Z,3.30
2018-10-09T08:01:54.981Z,3.67
2018-10-09T08:04:22.541Z,3.23
2018-10-09T08:06:50.282Z,2.83
2018-10-09T08:09:17.745Z,3.30
2018-10-09T08:11:45.272Z,3.03
2018-10-09T08:14:12.871Z,3.60
2018-10-09T08:16:40.403Z,3.53
2018-10-09T08:19:07.928Z,3.30
2018-10-09T08:21:35.650Z,2.87
2018-10-09T08:24:03.169Z,2.67
2018-10-09T08:26:30.664Z,2.93
2018-10-09T08:28:58.551Z,3.07
2018-10-09T08:31:25.987Z,3.33
2018-10-09T08:33:53.470Z,2.70
2018-10-09T08:36:21.194Z,2.73
2018-10-09T08:38:48.659Z,2.97
2018-10-09T08:41:16.171Z,2.60
2018-10-09T08:43:43.934Z,2.63
2018-10-09T08:46:11.501Z,2.97
2018-10-09T08:48:39.284Z,2.70
2018-10-09T08:51:07.098Z,2.70
2018-10-09T08:53:34.590Z,3.00
2018-10-09T08:56:02.291Z,2.60
2018-10-09T08:58:29.860Z,2.70
2018-10-09T09:00:57.396Z,2.20
2018-10-09T09:03:24.872Z,2.20
2018-10-09T09:05:52.583Z,2.03
2018-10-09T09:08:20.113Z,1.87
2018-10-09T09:10:47.581Z,2.03
2018-10-09T09:13:15.393Z,1.83
2018-10-09T09:15:42.922Z,2.17
2018-10-09T09:18:10.415Z,1.90
2018-10-09T09:20:38.269Z,1.80
2018-10-09T09:23:05.628Z,2.50
2018-10-09T09:25:33.080Z,2.20
2018-10-09T09:28:00.780Z,2.10
2018-10-09T09:30:28.237Z,2.10
2018-10-09T09:32:55.900Z,2.20
2018-10-09T09:35:23.540Z,2.10
2018-10-09T09:37:51.038Z,2.10
2018-10-09T09:40:18.527Z,2.30
2018-10-09T09:42:46.218Z,2.00
2018-10-09T09:45:13.834Z,2.30
2018-10-09T09:47:41.348Z,2.00
2018-10-09T09:50:09.189Z,2.50
2018-10-09T09:52:36.663Z,2.47
2018-10-09T09:55:04.247Z,2.10
2018-10-09T09:57:32.359Z,1.80
2018-10-09T09:59:59.843Z,1.70
2018-10-09T10:02:27.358Z,1.87
2018-10-09T10:04:54.897Z,2.00
2018-10-09T10:07:22.377Z,1.63
2018-10-09T10:09:49.887Z,1.67
2018-10-09T10:12:17.623Z,2.00
2018-10-09T10:14:45.096Z,1.70
2018-10-09T10:17:12.539Z,1.60
2018-10-09T10:19:40.207Z,1.83
2018-10-09T10:22:07.721Z,1.83
2018-10-09T10:24:35.195Z,1.90
2018-10-09T10:27:02.869Z,2.10
2018-10-09T10:29:30.385Z,1.87
2018-10-09T10:31:57.918Z,1.93
2018-10-09T10:34:25.640Z,1.83
2018-10-09T10:36:53.088Z,1.53
2018-10-09T10:39:20.502Z,1.90
2018-10-09T10:41:48.250Z,1.57
2018-10-09T10:44:15.737Z,1.43
2018-10-09T10:46:43.247Z,1.30
2018-10-09T10:49:12.876Z,1.30
2018-10-09T10:51:40.437Z,0.97
2018-10-09T10:54:07.980Z,1.27
2018-10-09T10:56:35.867Z,1.00
2018-10-09T10:59:04.143Z,1.00
2018-10-09T11:01:31.857Z,1.00
2018-10-09T11:03:59.680Z,0.90
2018-10-09T11:06:27.269Z,1.30
2018-10-09T11:08:54.748Z,1.17
2018-10-09T11:11:22.334Z,1.03
2018-10-09T11:13:49.747Z,0.70
2018-10-09T11:16:17.831Z,0.70
2018-10-09T11:18:45.528Z,0.80
2018-10-09T11:21:13.023Z,1.03
2018-10-09T11:23:40.508Z,1.00
2018-10-09T11:26:08.233Z,1.20
2018-10-09T11:28:35.707Z,1.20
2018-10-09T11:31:03.220Z,1.30
2018-10-09T11:33:30.876Z,1.10
2018-10-09T11:35:58.432Z,1.10
2018-10-09T11:38:25.881Z,1.13
2018-10-09T11:40:53.741Z,1.00
2018-10-09T11:43:21.303Z,0.90
2018-10-09T11:45:48.795Z,0.90
2018-10-09T11:48:16.711Z,1.00
2018-10-09T11:50:44.263Z,0.93
2018-10-09T11:53:11.743Z,1.00
2018-10-09T11:55:42.266Z,0.90
2018-10-09T11:58:09.757Z,0.93
2018-10-09T12:00:39.169Z,0.77
2018-10-09T12:03:07.018Z,0.90
2018-10-09T12:05:34.657Z,1.10
2018-10-09T12:08:02.386Z,0.90
2018-10-09T12:10:30.085Z,1.00
2018-10-09T12:12:57.518Z,1.00
2018-10-09T12:15:25.468Z,0.87
2018-10-09T12:17:53.152Z,1.03
2018-10-09T12:20:20.672Z,0.90
2018-10-09T12:22:48.193Z,1.23
2018-10-09T12:25:15.912Z,0.80
2018-10-09T12:27:43.407Z,0.90
2018-10-09T12:30:10.888Z,1.03
2018-10-09T12:32:38.654Z,0.77
2018-10-09T12:35:06.555Z,1.10
2018-10-09T12:37:34.080Z,1.10
2018-10-09T12:40:01.697Z,0.90
2018-10-09T12:42:29.179Z,1.00
2018-10-09T12:44:56.625Z,0.70
2018-10-09T12:47:24.323Z,0.90
2018-10-09T12:49:51.869Z,1.13
2018-10-09T12:52:19.335Z,1.00
2018-10-09T12:54:47.067Z,1.13
2018-10-09T12:57:14.599Z,0.87
2018-10-09T12:59:42.102Z,1.10
2018-10-09T13:02:09.906Z,0.60
2018-10-09T13:04:37.423Z,1.00
2018-10-09T13:07:04.977Z,1.17
2018-10-09T13:09:32.766Z,0.97
2018-10-09T13:12:00.186Z,0.83
2018-10-09T13:14:27.665Z,1.00
2018-10-09T13:16:55.336Z,0.87
2018-10-09T13:19:22.791Z,0.80
2018-10-09T13:21:50.790Z,0.90
2018-10-09T13:24:18.029Z,1.00
2018-10-09T13:26:45.607Z,0.73
2018-10-09T13:29:13.141Z,0.80
2018-10-09T13:31:40.814Z,0.90
2018-10-09T13:34:08.341Z,0.87
2018-10-09T13:36:35.801Z,0.90
2018-10-09T13:39:04.718Z,1.03
2018-10-09T13:41:32.196Z,1.53
2018-10-09T13:43:59.708Z,0.90
2018-10-09T13:46:27.430Z,1.10
2018-10-09T13:48:54.859Z,0.90
2018-10-09T13:51:22.406Z,0.77
2018-10-09T13:53:50.065Z,0.83
2018-10-09T13:56:17.525Z,0.90
2018-10-09T13:58:45.021Z,0.90
2018-10-09T14:01:12.743Z,0.90
2018-10-09T14:03:40.454Z,1.10
2018-10-09T14:06:07.967Z,1.07
2018-10-09T14:08:35.682Z,0.83
2018-10-09T14:11:03.252Z,0.80
2018-10-09T14:13:30.698Z,0.83
2018-10-09T14:15:58.463Z,0.60
2018-10-09T14:18:25.947Z,1.30
2018-10-09T14:20:53.423Z,1.03
2018-10-09T14:23:21.015Z,0.90
2018-10-09T14:25:49.576Z,0.90
2018-10-09T14:28:17.079Z,0.90
2018-10-09T14:30:44.675Z,0.80
2018-10-09T14:33:12.135Z,0.90
2018-10-09T14:35:39.661Z,1.43
2018-10-09T14:38:07.354Z,1.10
2018-10-09T14:40:34.936Z,0.80
2018-10-09T14:43:02.488Z,0.90
2018-10-09T14:45:30.114Z,1.00
2018-10-09T14:47:57.634Z,0.83
2018-10-09T14:50:25.138Z,0.70
2018-10-09T14:52:53.009Z,1.20
2018-10-09T14:55:20.461Z,0.80
2018-10-09T14:57:48.056Z,0.80
2018-10-09T15:00:15.970Z,0.83
2018-10-09T15:02:43.489Z,0.70
2018-10-09T15:05:11.282Z,0.70
2018-10-09T15:07:39.113Z,0.90
2018-10-09T15:10:06.666Z,0.90
2018-10-09T15:12:34.291Z,0.80
2018-10-09T15:15:01.928Z,0.73
2018-10-09T15:17:29.532Z,0.80
2018-10-09T15:19:56.954Z,0.70
2018-10-09T15:22:24.636Z,1.10
2018-10-09T15:24:52.834Z,0.67
2018-10-09T15:27:20.285Z,0.73
2018-10-09T15:29:47.871Z,0.73
2018-10-09T15:32:15.417Z,0.70
2018-10-09T15:34:43.026Z,0.63
2018-10-09T15:37:10.605Z,0.70
2018-10-09T15:39:38.143Z,0.60
2018-10-09T15:42:05.767Z,0.60
2018-10-09T15:44:33.456Z,0.83
2018-10-09T15:47:00.966Z,0.80
2018-10-09T15:49:28.526Z,0.80
2018-10-09T15:51:56.142Z,0.70
2018-10-09T15:54:23.555Z,0.70
2018-10-09T15:56:51.082Z,0.80
2018-10-09T15:59:18.795Z,0.60
2018-10-09T16:01:46.285Z,0.80
2018-10-09T16:04:13.827Z,0.90
2018-10-09T16:06:41.717Z,0.67
2018-10-09T16:09:10.138Z,0.60
2018-10-09T16:11:37.685Z,0.70
2018-10-09T16:14:05.348Z,0.80
2018-10-09T16:16:32.875Z,0.80
2018-10-09T16:19:00.316Z,0.67
2018-10-09T16:21:27.877Z,0.73
2018-10-09T16:23:55.421Z,0.57
2018-10-09T16:26:22.920Z,0.53
2018-10-09T16:28:50.409Z,0.97
2018-10-09T16:31:17.899Z,0.80
2018-10-09T16:33:45.377Z,0.90
2018-10-09T16:36:12.991Z,0.90
2018-10-09T16:38:40.422Z,1.03
2018-10-09T16:41:08.334Z,1.00
2018-10-09T16:43:35.936Z,1.30
2018-10-09T16:46:04.126Z,1.10
2018-10-09T16:48:31.668Z,1.60
2018-10-09T16:50:59.523Z,1.10
2018-10-09T16:53:27.183Z,1.20
2018-10-09T16:55:54.533Z,1.17
2018-10-09T16:58:22.073Z,0.93
2018-10-09T17:00:49.663Z,0.80
2018-10-09T17:03:17.141Z,1.07
2018-10-09T17:05:44.930Z,1.40
2018-10-09T17:08:12.520Z,1.03
2018-10-09T17:10:40.096Z,1.20
2018-10-09T17:13:07.922Z,1.23
2018-10-09T17:15:35.463Z,1.00
2018-10-09T17:18:03.019Z,0.90
2018-10-09T17:20:30.626Z,1.20
2018-10-09T17:22:58.131Z,1.10
2018-10-09T17:25:25.614Z,1.40
2018-10-09T17:27:53.266Z,1.13
2018-10-09T17:30:20.778Z,1.20
2018-10-09T17:32:48.227Z,1.40
2018-10-09T17:35:15.951Z,1.57
2018-10-09T17:37:43.394Z,1.20
2018-10-09T17:40:10.955Z,1.20
2018-10-09T17:42:38.578Z,1.53
2018-10-09T17:45:06.172Z,1.03
2018-10-09T17:47:33.659Z,1.53
2018-10-09T17:50:01.277Z,1.33
2018-10-09T17:52:28.723Z,1.37
2018-10-09T17:54:56.207Z,1.20
2018-10-09T17:57:23.760Z,1.50
2018-10-09T17:59:51.239Z,1.30
2018-10-09T18:02:18.781Z,1.70
2018-10-09T18:04:46.414Z,1.27
2018-10-09T18:07:14.030Z,1.30
2018-10-09T18:09:41.923Z,1.17
2018-10-09T18:12:09.541Z,1.17
2018-10-09T18:14:36.980Z,1.30
2018-10-09T18:17:04.455Z,1.40
2018-10-09T18:19:31.991Z,1.60
2018-10-09T18:21:59.479Z,1.43
2018-10-09T18:24:26.977Z,1.00
2018-10-09T18:26:54.486Z,1.97
2018-10-09T18:29:21.976Z,1.60
2018-10-09T18:35:19.967Z,1.60
2018-10-09T18:37:47.413Z,1.73
2018-10-09T18:40:14.877Z,1.33
2018-10-09T18:42:42.481Z,1.47
2018-10-09T18:45:10.033Z,1.80
2018-10-09T18:47:40.410Z,1.40
2018-10-09T18:50:07.945Z,1.30
2018-10-09T18:52:35.408Z,1.70
2018-10-09T18:55:02.982Z,1.30
2018-10-09T18:57:30.577Z,1.80
2018-10-09T18:59:58.063Z,1.40
2018-10-09T19:02:25.591Z,1.07
2018-10-09T19:04:53.359Z,1.17
2018-10-09T19:07:20.843Z,1.37
2018-10-09T19:12:30.575Z,1.20
2018-10-09T19:14:58.085Z,1.47
2018-10-09T19:17:25.656Z,1.03
2018-10-09T19:19:53.157Z,1.10
2018-10-09T19:22:20.708Z,2.00
2018-10-09T19:24:48.206Z,1.80
2018-10-09T19:27:16.069Z,1.70
2018-10-09T19:29:43.647Z,1.80
2018-10-09T19:32:11.273Z,1.50
2018-10-09T19:34:39.085Z,1.57
2018-10-09T19:37:06.549Z,1.47
2018-10-09T19:39:34.057Z,1.77
2018-10-09T19:42:01.728Z,1.63
2018-10-09T19:44:29.238Z,1.50
2018-10-09T19:46:56.812Z,1.60
2018-10-09T19:49:24.266Z,1.60
2018-10-09T19:51:51.724Z,1.80
2018-10-09T19:54:19.230Z,1.93
2018-10-09T19:56:46.627Z,1.50
2018-10-09T19:59:14.078Z,1.50
2018-10-09T20:01:41.570Z,1.63
2018-10-09T20:04:09.180Z,1.60
2018-10-09T20:06:36.728Z,1.63
2018-10-09T20:09:08.012Z,1.77
2018-10-09T20:11:35.835Z,1.47
2018-10-09T20:14:03.381Z,1.40
2018-10-09T20:16:30.866Z,1.63
2018-10-09T20:18:58.512Z,1.80
2018-10-09T20:21:25.989Z,1.50
2018-10-09T20:23:53.523Z,1.67
2018-10-09T20:26:51.981Z,1.47
2018-10-09T20:29:19.493Z,1.70
2018-10-09T20:31:46.985Z,1.30
2018-10-09T20:34:14.541Z,1.60
2018-10-09T20:36:42.001Z,1.77
2018-10-09T20:39:09.519Z,1.60
2018-10-09T20:41:37.014Z,1.87
2018-10-09T20:44:04.480Z,1.80
2018-10-09T20:46:31.957Z,1.80
2018-10-09T20:48:59.605Z,2.00
2018-10-09T20:51:27.105Z,1.57
2018-10-09T20:53:54.585Z,1.90
2018-10-09T20:56:22.195Z,1.80
2018-10-09T20:58:49.622Z,1.40
2018-10-09T21:01:17.104Z,1.63
2018-10-09T21:03:44.602Z,2.00
2018-10-09T21:06:12.250Z,1.87
2018-10-09T21:08:39.664Z,1.93
2018-10-09T21:11:07.703Z,1.53
2018-10-09T21:13:35.497Z,1.40
2018-10-09T21:16:02.998Z,1.43
2018-10-09T21:18:30.666Z,1.80
2018-10-09T21:20:58.137Z,1.30
2018-10-09T21:23:25.644Z,1.83
2018-10-09T21:25:53.370Z,1.60
2018-10-09T21:28:20.845Z,1.40
2018-10-09T21:30:48.374Z,1.77
2018-10-09T21:33:15.951Z,1.03
2018-10-09T21:35:43.435Z,1.40
2018-10-09T21:38:10.960Z,1.53
2018-10-09T21:40:38.512Z,1.50
2018-10-09T21:43:06.086Z,1.50
2018-10-09T21:45:33.590Z,1.63
2018-10-09T21:48:01.673Z,1.70
2018-10-09T21:50:29.130Z,1.30
2018-10-09T21:52:57.207Z,1.67
2018-10-09T21:55:25.027Z,1.73
2018-10-09T21:57:52.501Z,1.60
2018-10-09T22:00:19.981Z,2.00
2018-10-09T22:02:47.700Z,1.50
2018-10-09T22:05:15.103Z,1.40
2018-10-09T22:07:42.589Z,1.40
2018-10-09T22:10:10.433Z,1.70
2018-10-09T22:12:37.974Z,1.53
2018-10-09T22:15:06.289Z,1.60
2018-10-09T22:17:34.271Z,1.77
2018-10-09T22:20:01.791Z,1.70
2018-10-09T22:22:29.339Z,1.90
2018-10-09T22:24:56.953Z,1.60
2018-10-09T22:27:24.450Z,1.70
2018-10-09T22:29:52.781Z,1.43
2018-10-09T22:32:20.598Z,1.77
2018-10-09T22:34:48.403Z,1.73
2018-10-09T22:37:15.973Z,1.50
2018-10-09T22:39:43.635Z,1.30
2018-10-09T22:42:11.119Z,1.53
2018-10-09T22:44:38.566Z,1.50
2018-10-09T22:47:06.240Z,1.83
2018-10-09T22:49:33.744Z,1.80
2018-10-09T22:52:01.165Z,1.30
2018-10-09T22:54:28.895Z,1.50
2018-10-09T22:56:56.445Z,1.50
2018-10-09T22:59:24.305Z,1.30
2018-10-09T23:01:51.909Z,1.50
2018-10-09T23:04:19.386Z,1.70
2018-10-09T23:06:47.016Z,1.63
2018-10-09T23:09:14.576Z,1.57
2018-10-09T23:11:42.080Z,1.67
2018-10-09T23:14:09.586Z,1.73
2018-10-09T23:16:37.634Z,1.40
2018-10-09T23:19:05.493Z,1.20
2018-10-09T23:21:32.911Z,1.50
2018-10-09T23:24:00.601Z,1.37
2018-10-09T23:26:28.176Z,1.57
2018-10-09T23:28:55.670Z,1.20
2018-10-09T23:31:54.063Z,1.27
2018-10-09T23:34:21.554Z,1.20
2018-10-09T23:36:49.060Z,1.40
2018-10-09T23:39:16.718Z,1.40
2018-10-09T23:41:44.232Z,1.33
2018-10-09T23:44:11.687Z,1.27
2018-10-09T23:46:39.293Z,1.20
2018-10-09T23:49:06.738Z,1.40
2018-10-09T23:51:34.217Z,1.20
2018-10-09T23:54:01.761Z,1.50
2018-10-09T23:56:29.228Z,1.47
2018-10-09T23:58:56.739Z,1.20
